»·PEaware :: N4306H KAJO-KVCV

N4306H :: KAJO-KVCV

FLIGHT INFORMATION

Flight Status: Arrived
Operator: Privately registered:
United States
More flights under this callsign
Pilot: Lauro R. (32390)
Aircraft: MOONEY M-20 201 202 205 220 ATS MSE
(M20P)
More flights by this aircraft type
Origin: KAJO Corona Mun
United States
Destination: KVCV Socal Logistics
United States
More flights between these airports :: More routes between these airports
Route: PDZ V442 APLES
File this flight plan on PilotEdge
Remarks:
Altitude:
(Current/Filed)
9,000ft
Speed:
(Current/Filed)
180kts
Departed: 22-Nov-20 12:20 PM
Arrived: 22-Nov-20 01:17 PM
Distance/Time
Traveled:
43nm/0:57
Distance/Time
To Go:
Arrived

Flight Plot

Page will automatically refresh every two minutes.


Map Options




Map Legend


Flown Route
Filed Route
Departure Airport
Arrival Airport
Navaid (VOR, NDB)
Fix

Horizontal Profiles

Position Reports

Time Latitude Longitude Heading Altitude Ground
Speed
22-Nov-20 12:12 33.896958 -117.596885 268 536ft 0kts
22-Nov-20 12:13 33.896958 -117.596885 268 536ft 0kts
22-Nov-20 12:14 33.896958 -117.596885 268 536ft 0kts
22-Nov-20 12:15 33.896958 -117.596885 268 536ft 0kts
22-Nov-20 12:16 33.896964 -117.596935 281 536ft 3kts
22-Nov-20 12:17 33.897243 -117.597529 343 536ft 0kts
22-Nov-20 12:18 33.897722 -117.598651 269 536ft 36kts
22-Nov-20 12:19 33.899526 -117.625711 293 1159ft 98kts
22-Nov-20 12:20 33.921450 -117.620361 76 1905ft 119kts
22-Nov-20 12:21 33.913943 -117.583634 110 2613ft 110kts
22-Nov-20 12:22 33.913614 -117.549159 81 3296ft 101kts
22-Nov-20 12:23 33.933350 -117.532509 359 3796ft 111kts
22-Nov-20 12:24 33.958291 -117.515749 95 4011ft 130kts
22-Nov-20 12:25 33.929493 -117.516230 221 4165ft 133kts
22-Nov-20 12:26 33.915524 -117.549149 317 4868ft 127kts
22-Nov-20 12:27 33.944562 -117.534881 42 5593ft 124kts
22-Nov-20 12:28 33.932186 -117.513130 214 6013ft 142kts
22-Nov-20 12:29 33.913449 -117.551342 310 6009ft 152kts
22-Nov-20 12:30 33.946731 -117.537672 40 6591ft 137kts
22-Nov-20 12:31 33.972622 -117.506998 56 7282ft 127kts
22-Nov-20 12:32 33.999328 -117.481911 28 7966ft 120kts
22-Nov-20 12:33 34.028439 -117.463821 26 8657ft 114kts
22-Nov-20 12:34 34.058115 -117.445910 26 9007ft 136kts
22-Nov-20 12:35 34.097531 -117.422130 26 9004ft 177kts
22-Nov-20 12:36 34.143572 -117.394437 26 9000ft 190kts
22-Nov-20 12:37 34.191602 -117.365507 26 8999ft 194kts
22-Nov-20 12:38 34.240041 -117.336306 26 9008ft 195kts
22-Nov-20 12:39 34.288819 -117.306834 26 8999ft 196kts
22-Nov-20 12:40 34.337546 -117.277382 27 8999ft 196kts
22-Nov-20 12:41 34.386122 -117.247981 27 8999ft 196kts
22-Nov-20 12:42 34.434871 -117.218448 26 8998ft 193kts
22-Nov-20 12:43 34.476313 -117.193322 27 8992ft 142kts
22-Nov-20 12:44 34.507549 -117.174343 27 8992ft 109kts
22-Nov-20 12:45 34.533799 -117.158351 27 8661ft 116kts
22-Nov-20 12:46 34.567176 -117.145352 8 8086ft 135kts
22-Nov-20 12:47 34.605916 -117.143493 357 7492ft 143kts
22-Nov-20 12:48 34.647132 -117.151530 345 6903ft 156kts
22-Nov-20 12:49 34.687190 -117.170333 333 6543ft 146kts
22-Nov-20 12:50 34.719121 -117.195122 322 6542ft 128kts
22-Nov-20 12:51 34.744380 -117.223547 312 6541ft 118kts
22-Nov-20 12:52 34.764136 -117.254500 303 6544ft 115kts
22-Nov-20 12:53 34.779743 -117.289191 294 6393ft 128kts
22-Nov-20 12:54 34.792528 -117.335912 283 5725ft 157kts
22-Nov-20 12:55 34.784206 -117.383215 191 4881ft 163kts
22-Nov-20 12:56 34.741010 -117.377750 182 4244ft 144kts
22-Nov-20 12:57 34.706354 -117.380261 184 4234ft 105kts
22-Nov-20 12:58 34.678392 -117.382740 184 3802ft 110kts
22-Nov-20 12:59 34.646716 -117.385407 184 3164ft 112kts
22-Nov-20 13:00 34.620190 -117.385560 191 3145ft 87kts
22-Nov-20 13:01 34.592186 -117.396747 225 3548ft 134kts
22-Nov-20 13:02 34.605381 -117.433736 314 4177ft 139kts
22-Nov-20 13:03 34.621134 -117.476363 285 4772ft 141kts
22-Nov-20 13:04 34.630200 -117.522792 283 5369ft 141kts
22-Nov-20 13:05 34.638877 -117.568942 283 5924ft 142kts
22-Nov-20 13:06 34.653249 -117.613202 321 5949ft 166kts
22-Nov-20 13:08 34.694169 -117.596428 40 5947ft 175kts
22-Nov-20 13:09 34.702145 -117.545244 110 5956ft 177kts
22-Nov-20 13:10 34.676837 -117.495932 133 5121ft 187kts
22-Nov-20 13:11 34.646171 -117.455686 141 4625ft 145kts
22-Nov-20 13:12 34.616144 -117.422931 134 3948ft 143kts
22-Nov-20 13:13 34.609148 -117.386917 47 3724ft 102kts
22-Nov-20 13:14 34.625817 -117.362597 52 3563ft 99kts
22-Nov-20 13:15 34.615104 -117.348836 226 3356ft 77kts
22-Nov-20 13:16 34.600369 -117.366685 225 2865ft 67kts
22-Nov-20 13:17 34.594358 -117.372721 180 2857ft 6kts
22-Nov-20 13:18 34.593936 -117.372717 180 2858ft 0kts
22-Nov-20 13:19 34.591447 -117.374378 199 2863ft 9kts
22-Nov-20 13:20 34.588417 -117.374808 179 2867ft 9kts

Navigation Log

Ident Type
Flight plan parsing failed, navigation log unavailable